sensor_id;sensor_type;location;lat;lon;timestamp;P1;durP1;ratioP1;P2;durP2;ratioP2
16460;SDS011;8341;42.048;24.650;2023-05-07T00:01:35;8.30;;;6.60;;
16460;SDS011;8341;42.048;24.650;2023-05-07T00:04:02;7.35;;;6.65;;
16460;SDS011;8341;42.048;24.650;2023-05-07T00:06:29;8.48;;;7.35;;
16460;SDS011;8341;42.048;24.650;2023-05-07T00:08:56;8.07;;;7.10;;
16460;SDS011;8341;42.048;24.650;2023-05-07T00:11:24;7.13;;;6.43;;
16460;SDS011;8341;42.048;24.650;2023-05-07T00:13:52;7.70;;;6.22;;
16460;SDS011;8341;42.048;24.650;2023-05-07T00:16:20;7.45;;;6.40;;
16460;SDS011;8341;42.048;24.650;2023-05-07T00:18:47;6.18;;;5.57;;
16460;SDS011;8341;42.048;24.650;2023-05-07T00:21:13;7.72;;;6.43;;
16460;SDS011;8341;42.048;24.650;2023-05-07T00:23:40;6.90;;;5.88;;
16460;SDS011;8341;42.048;24.650;2023-05-07T00:26:07;6.93;;;6.22;;
16460;SDS011;8341;42.048;24.650;2023-05-07T00:28:34;6.38;;;5.78;;
16460;SDS011;8341;42.048;24.650;2023-05-07T00:31:02;8.65;;;6.43;;
16460;SDS011;8341;42.048;24.650;2023-05-07T00:33:29;7.40;;;6.35;;
16460;SDS011;8341;42.048;24.650;2023-05-07T00:35:56;9.45;;;6.55;;
16460;SDS011;8341;42.048;24.650;2023-05-07T00:38:23;7.75;;;6.47;;
16460;SDS011;8341;42.048;24.650;2023-05-07T00:40:50;7.80;;;6.97;;
16460;SDS011;8341;42.048;24.650;2023-05-07T00:43:17;7.00;;;6.30;;
16460;SDS011;8341;42.048;24.650;2023-05-07T00:45:44;8.27;;;6.20;;
16460;SDS011;8341;42.048;24.650;2023-05-07T00:48:12;7.45;;;6.63;;
16460;SDS011;8341;42.048;24.650;2023-05-07T00:50:39;7.20;;;6.43;;
16460;SDS011;8341;42.048;24.650;2023-05-07T00:53:06;6.78;;;6.13;;
16460;SDS011;8341;42.048;24.650;2023-05-07T00:55:34;7.05;;;6.35;;
16460;SDS011;8341;42.048;24.650;2023-05-07T00:58:02;7.38;;;6.35;;
16460;SDS011;8341;42.048;24.650;2023-05-07T01:00:29;7.00;;;5.90;;
16460;SDS011;8341;42.048;24.650;2023-05-07T01:02:56;9.35;;;7.13;;
16460;SDS011;8341;42.048;24.650;2023-05-07T01:05:25;7.70;;;6.65;;
16460;SDS011;8341;42.048;24.650;2023-05-07T01:07:53;7.07;;;6.38;;
16460;SDS011;8341;42.048;24.650;2023-05-07T01:10:22;7.80;;;6.38;;
16460;SDS011;8341;42.048;24.650;2023-05-07T01:12:50;7.00;;;6.30;;
16460;SDS011;8341;42.048;24.650;2023-05-07T01:15:18;7.22;;;6.53;;
16460;SDS011;8341;42.048;24.650;2023-05-07T01:17:45;7.40;;;6.70;;
16460;SDS011;8341;42.048;24.650;2023-05-07T01:20:12;7.07;;;6.47;;
16460;SDS011;8341;42.048;24.650;2023-05-07T01:22:40;7.35;;;6.50;;
16460;SDS011;8341;42.048;24.650;2023-05-07T01:25:09;6.78;;;6.20;;
16460;SDS011;8341;42.048;24.650;2023-05-07T01:27:36;7.35;;;6.47;;
16460;SDS011;8341;42.048;24.650;2023-05-07T01:30:03;8.00;;;6.88;;
16460;SDS011;8341;42.048;24.650;2023-05-07T01:32:32;7.40;;;6.70;;
16460;SDS011;8341;42.048;24.650;2023-05-07T01:35:02;7.30;;;6.60;;
16460;SDS011;8341;42.048;24.650;2023-05-07T01:37:33;9.32;;;6.88;;
16460;SDS011;8341;42.048;24.650;2023-05-07T01:40:02;7.93;;;7.13;;
16460;SDS011;8341;42.048;24.650;2023-05-07T01:42:29;8.52;;;6.65;;
16460;SDS011;8341;42.048;24.650;2023-05-07T01:44:57;6.50;;;5.85;;
16460;SDS011;8341;42.048;24.650;2023-05-07T01:47:24;8.15;;;6.03;;
16460;SDS011;8341;42.048;24.650;2023-05-07T01:49:52;6.47;;;5.65;;
16460;SDS011;8341;42.048;24.650;2023-05-07T01:52:19;6.45;;;5.85;;
16460;SDS011;8341;42.048;24.650;2023-05-07T01:54:47;7.35;;;6.65;;
16460;SDS011;8341;42.048;24.650;2023-05-07T01:57:15;7.63;;;6.93;;
16460;SDS011;8341;42.048;24.650;2023-05-07T01:59:42;8.57;;;6.28;;
16460;SDS011;8341;42.048;24.650;2023-05-07T02:02:09;7.57;;;6.88;;
16460;SDS011;8341;42.048;24.650;2023-05-07T02:04:36;7.75;;;6.82;;
16460;SDS011;8341;42.048;24.650;2023-05-07T02:07:02;7.30;;;6.60;;
16460;SDS011;8341;42.048;24.650;2023-05-07T02:09:29;7.93;;;7.07;;
16460;SDS011;8341;42.048;24.650;2023-05-07T02:11:56;8.00;;;7.28;;
16460;SDS011;8341;42.048;24.650;2023-05-07T02:14:24;8.10;;;7.30;;
16460;SDS011;8341;42.048;24.650;2023-05-07T02:16:52;8.00;;;7.00;;
16460;SDS011;8341;42.048;24.650;2023-05-07T02:19:19;7.53;;;6.82;;
16460;SDS011;8341;42.048;24.650;2023-05-07T02:21:46;7.78;;;7.03;;
16460;SDS011;8341;42.048;24.650;2023-05-07T02:24:13;7.88;;;6.53;;
16460;SDS011;8341;42.048;24.650;2023-05-07T02:26:40;7.13;;;6.43;;
16460;SDS011;8341;42.048;24.650;2023-05-07T02:29:07;8.02;;;7.03;;
16460;SDS011;8341;42.048;24.650;2023-05-07T02:31:35;8.45;;;7.05;;
16460;SDS011;8341;42.048;24.650;2023-05-07T02:34:02;9.23;;;6.80;;
16460;SDS011;8341;42.048;24.650;2023-05-07T02:36:29;7.82;;;7.05;;
16460;SDS011;8341;42.048;24.650;2023-05-07T02:38:56;7.90;;;7.10;;
16460;SDS011;8341;42.048;24.650;2023-05-07T02:41:22;6.93;;;6.32;;
16460;SDS011;8341;42.048;24.650;2023-05-07T02:43:49;8.70;;;6.97;;
16460;SDS011;8341;42.048;24.650;2023-05-07T02:46:16;8.25;;;7.00;;
16460;SDS011;8341;42.048;24.650;2023-05-07T02:48:45;8.18;;;6.78;;
16460;SDS011;8341;42.048;24.650;2023-05-07T02:51:11;8.10;;;7.30;;
16460;SDS011;8341;42.048;24.650;2023-05-07T02:53:38;7.82;;;7.03;;
16460;SDS011;8341;42.048;24.650;2023-05-07T02:56:05;7.97;;;6.13;;
16460;SDS011;8341;42.048;24.650;2023-05-07T02:58:33;6.93;;;6.28;;
16460;SDS011;8341;42.048;24.650;2023-05-07T03:00:59;6.63;;;6.03;;
16460;SDS011;8341;42.048;24.650;2023-05-07T03:03:26;7.50;;;6.80;;
16460;SDS011;8341;42.048;24.650;2023-05-07T03:05:55;7.60;;;6.80;;
16460;SDS011;8341;42.048;24.650;2023-05-07T03:08:21;7.72;;;6.45;;
16460;SDS011;8341;42.048;24.650;2023-05-07T03:10:48;7.63;;;6.50;;
16460;SDS011;8341;42.048;24.650;2023-05-07T03:13:15;7.75;;;6.95;;
16460;SDS011;8341;42.048;24.650;2023-05-07T03:15:42;11.18;;;7.55;;
16460;SDS011;8341;42.048;24.650;2023-05-07T03:18:09;7.05;;;6.40;;
16460;SDS011;8341;42.048;24.650;2023-05-07T03:20:36;6.50;;;5.68;;
16460;SDS011;8341;42.048;24.650;2023-05-07T03:23:04;7.38;;;6.22;;
16460;SDS011;8341;42.048;24.650;2023-05-07T03:25:31;11.48;;;7.18;;
16460;SDS011;8341;42.048;24.650;2023-05-07T03:27:58;8.27;;;7.45;;
16460;SDS011;8341;42.048;24.650;2023-05-07T03:30:25;8.75;;;7.85;;
16460;SDS011;8341;42.048;24.650;2023-05-07T03:32:52;9.55;;;7.57;;
16460;SDS011;8341;42.048;24.650;2023-05-07T03:35:19;8.70;;;7.85;;
16460;SDS011;8341;42.048;24.650;2023-05-07T03:37:46;8.13;;;7.32;;
16460;SDS011;8341;42.048;24.650;2023-05-07T03:40:14;9.13;;;8.23;;
16460;SDS011;8341;42.048;24.650;2023-05-07T03:42:41;8.05;;;7.25;;
16460;SDS011;8341;42.048;24.650;2023-05-07T03:45:08;8.25;;;7.45;;
16460;SDS011;8341;42.048;24.650;2023-05-07T03:47:35;15.25;;;9.85;;
16460;SDS011;8341;42.048;24.650;2023-05-07T03:50:02;7.85;;;7.05;;
16460;SDS011;8341;42.048;24.650;2023-05-07T03:52:30;11.40;;;8.98;;
16460;SDS011;8341;42.048;24.650;2023-05-07T03:54:57;10.02;;;8.88;;
16460;SDS011;8341;42.048;24.650;2023-05-07T03:57:25;9.07;;;8.18;;
16460;SDS011;8341;42.048;24.650;2023-05-07T03:59:52;15.93;;;11.60;;
16460;SDS011;8341;42.048;24.650;2023-05-07T04:02:19;21.95;;;16.83;;
16460;SDS011;8341;42.048;24.650;2023-05-07T04:04:45;11.27;;;8.80;;
16460;SDS011;8341;42.048;24.650;2023-05-07T04:07:14;9.30;;;8.00;;
16460;SDS011;8341;42.048;24.650;2023-05-07T04:09:41;11.13;;;9.98;;
16460;SDS011;8341;42.048;24.650;2023-05-07T04:12:08;16.08;;;13.43;;
16460;SDS011;8341;42.048;24.650;2023-05-07T04:14:36;18.92;;;15.00;;
16460;SDS011;8341;42.048;24.650;2023-05-07T04:17:03;15.32;;;13.13;;
16460;SDS011;8341;42.048;24.650;2023-05-07T04:19:32;17.20;;;14.38;;
16460;SDS011;8341;42.048;24.650;2023-05-07T04:21:59;10.52;;;9.43;;
16460;SDS011;8341;42.048;24.650;2023-05-07T04:24:26;11.68;;;9.05;;
16460;SDS011;8341;42.048;24.650;2023-05-07T04:26:53;7.20;;;6.53;;
16460;SDS011;8341;42.048;24.650;2023-05-07T04:29:20;6.68;;;6.07;;
16460;SDS011;8341;42.048;24.650;2023-05-07T04:31:48;6.90;;;6.05;;
16460;SDS011;8341;42.048;24.650;2023-05-07T04:34:15;10.98;;;7.88;;
16460;SDS011;8341;42.048;24.650;2023-05-07T04:36:42;7.28;;;6.57;;
16460;SDS011;8341;42.048;24.650;2023-05-07T04:39:09;7.60;;;6.10;;
16460;SDS011;8341;42.048;24.650;2023-05-07T04:41:36;8.43;;;7.63;;
16460;SDS011;8341;42.048;24.650;2023-05-07T04:44:03;6.07;;;5.47;;
16460;SDS011;8341;42.048;24.650;2023-05-07T04:46:31;6.07;;;5.50;;
16460;SDS011;8341;42.048;24.650;2023-05-07T04:48:59;5.25;;;4.75;;
16460;SDS011;8341;42.048;24.650;2023-05-07T04:51:26;5.38;;;4.88;;
16460;SDS011;8341;42.048;24.650;2023-05-07T04:53:53;5.38;;;4.88;;
16460;SDS011;8341;42.048;24.650;2023-05-07T04:56:20;6.18;;;5.53;;
16460;SDS011;8341;42.048;24.650;2023-05-07T04:58:47;5.50;;;5.00;;
16460;SDS011;8341;42.048;24.650;2023-05-07T05:01:13;6.80;;;5.38;;
16460;SDS011;8341;42.048;24.650;2023-05-07T05:03:40;6.47;;;5.90;;
16460;SDS011;8341;42.048;24.650;2023-05-07T05:06:09;5.95;;;5.38;;
16460;SDS011;8341;42.048;24.650;2023-05-07T05:08:36;5.75;;;5.22;;
16460;SDS011;8341;42.048;24.650;2023-05-07T05:11:03;6.10;;;5.00;;
16460;SDS011;8341;42.048;24.650;2023-05-07T05:13:30;6.32;;;5.70;;
16460;SDS011;8341;42.048;24.650;2023-05-07T05:19:15;8.05;;;5.05;;
16460;SDS011;8341;42.048;24.650;2023-05-07T05:21:43;5.32;;;4.82;;
16460;SDS011;8341;42.048;24.650;2023-05-07T05:24:10;4.88;;;4.32;;
16460;SDS011;8341;42.048;24.650;2023-05-07T05:26:37;5.40;;;4.90;;
16460;SDS011;8341;42.048;24.650;2023-05-07T05:29:04;6.40;;;4.57;;
16460;SDS011;8341;42.048;24.650;2023-05-07T05:31:31;6.75;;;5.25;;
16460;SDS011;8341;42.048;24.650;2023-05-07T05:33:58;5.45;;;4.95;;
16460;SDS011;8341;42.048;24.650;2023-05-07T05:36:25;6.00;;;5.32;;
16460;SDS011;8341;42.048;24.650;2023-05-07T05:38:54;6.22;;;5.45;;
16460;SDS011;8341;42.048;24.650;2023-05-07T05:41:21;6.18;;;5.57;;
16460;SDS011;8341;42.048;24.650;2023-05-07T05:43:48;6.38;;;5.78;;
16460;SDS011;8341;42.048;24.650;2023-05-07T05:46:15;9.40;;;7.03;;
16460;SDS011;8341;42.048;24.650;2023-05-07T05:48:42;7.85;;;6.97;;
16460;SDS011;8341;42.048;24.650;2023-05-07T05:51:09;10.00;;;8.95;;
16460;SDS011;8341;42.048;24.650;2023-05-07T05:53:36;12.40;;;10.88;;
16460;SDS011;8341;42.048;24.650;2023-05-07T05:56:04;8.57;;;6.90;;
16460;SDS011;8341;42.048;24.650;2023-05-07T05:58:32;10.10;;;7.53;;
16460;SDS011;8341;42.048;24.650;2023-05-07T06:00:59;7.57;;;6.32;;
16460;SDS011;8341;42.048;24.650;2023-05-07T06:03:27;8.13;;;7.32;;
16460;SDS011;8341;42.048;24.650;2023-05-07T06:05:54;7.45;;;6.75;;
16460;SDS011;8341;42.048;24.650;2023-05-07T06:08:21;7.80;;;6.82;;
16460;SDS011;8341;42.048;24.650;2023-05-07T06:10:48;7.30;;;6.60;;
16460;SDS011;8341;42.048;24.650;2023-05-07T06:13:16;12.23;;;6.88;;
16460;SDS011;8341;42.048;24.650;2023-05-07T06:15:43;10.45;;;7.40;;
16460;SDS011;8341;42.048;24.650;2023-05-07T06:18:10;8.20;;;7.40;;
16460;SDS011;8341;42.048;24.650;2023-05-07T06:20:37;7.60;;;6.85;;
16460;SDS011;8341;42.048;24.650;2023-05-07T06:23:04;9.20;;;6.72;;
16460;SDS011;8341;42.048;24.650;2023-05-07T06:25:31;8.27;;;7.40;;
16460;SDS011;8341;42.048;24.650;2023-05-07T06:27:58;8.85;;;7.05;;
16460;SDS011;8341;42.048;24.650;2023-05-07T06:30:27;8.15;;;7.35;;
16460;SDS011;8341;42.048;24.650;2023-05-07T06:32:54;7.72;;;6.47;;
16460;SDS011;8341;42.048;24.650;2023-05-07T06:35:21;8.38;;;7.57;;
16460;SDS011;8341;42.048;24.650;2023-05-07T06:37:47;7.53;;;6.82;;
16460;SDS011;8341;42.048;24.650;2023-05-07T06:40:14;9.18;;;7.30;;
16460;SDS011;8341;42.048;24.650;2023-05-07T06:42:41;9.88;;;7.50;;
16460;SDS011;8341;42.048;24.650;2023-05-07T06:45:09;11.15;;;7.18;;
16460;SDS011;8341;42.048;24.650;2023-05-07T06:47:38;9.57;;;7.20;;
16460;SDS011;8341;42.048;24.650;2023-05-07T06:50:05;8.15;;;7.10;;
16460;SDS011;8341;42.048;24.650;2023-05-07T06:52:33;8.68;;;7.75;;
16460;SDS011;8341;42.048;24.650;2023-05-07T06:55:00;7.80;;;7.10;;
16460;SDS011;8341;42.048;24.650;2023-05-07T06:57:27;8.68;;;7.50;;
16460;SDS011;8341;42.048;24.650;2023-05-07T06:59:54;8.50;;;7.70;;
16460;SDS011;8341;42.048;24.650;2023-05-07T07:02:21;8.70;;;7.70;;
16460;SDS011;8341;42.048;24.650;2023-05-07T07:04:49;8.55;;;7.65;;
16460;SDS011;8341;42.048;24.650;2023-05-07T07:07:16;10.30;;;7.80;;
16460;SDS011;8341;42.048;24.650;2023-05-07T07:09:43;8.52;;;7.63;;
16460;SDS011;8341;42.048;24.650;2023-05-07T07:12:10;10.25;;;7.78;;
16460;SDS011;8341;42.048;24.650;2023-05-07T07:14:37;11.05;;;7.70;;
16460;SDS011;8341;42.048;24.650;2023-05-07T07:17:04;11.35;;;7.60;;
16460;SDS011;8341;42.048;24.650;2023-05-07T07:19:31;8.82;;;7.20;;
16460;SDS011;8341;42.048;24.650;2023-05-07T07:21:59;9.73;;;7.72;;
16460;SDS011;8341;42.048;24.650;2023-05-07T07:24:27;8.75;;;7.30;;
16460;SDS011;8341;42.048;24.650;2023-05-07T07:26:54;8.75;;;7.45;;
16460;SDS011;8341;42.048;24.650;2023-05-07T07:29:22;7.85;;;6.95;;
16460;SDS011;8341;42.048;24.650;2023-05-07T07:31:50;9.30;;;7.47;;
16460;SDS011;8341;42.048;24.650;2023-05-07T07:34:17;8.80;;;6.95;;
16460;SDS011;8341;42.048;24.650;2023-05-07T07:36:44;7.45;;;6.75;;
16460;SDS011;8341;42.048;24.650;2023-05-07T07:39:12;7.50;;;6.70;;
16460;SDS011;8341;42.048;24.650;2023-05-07T07:41:39;8.65;;;6.75;;
16460;SDS011;8341;42.048;24.650;2023-05-07T07:44:06;6.78;;;6.10;;
16460;SDS011;8341;42.048;24.650;2023-05-07T07:46:33;7.63;;;6.55;;
16460;SDS011;8341;42.048;24.650;2023-05-07T07:49:00;7.63;;;6.65;;
16460;SDS011;8341;42.048;24.650;2023-05-07T07:51:27;9.00;;;6.53;;
16460;SDS011;8341;42.048;24.650;2023-05-07T07:53:55;8.57;;;7.10;;
16460;SDS011;8341;42.048;24.650;2023-05-07T07:56:24;9.15;;;6.35;;
16460;SDS011;8341;42.048;24.650;2023-05-07T07:58:51;8.70;;;6.30;;
16460;SDS011;8341;42.048;24.650;2023-05-07T08:01:18;6.25;;;5.70;;
16460;SDS011;8341;42.048;24.650;2023-05-07T08:03:45;6.53;;;5.93;;
16460;SDS011;8341;42.048;24.650;2023-05-07T08:06:11;9.88;;;6.85;;
16460;SDS011;8341;42.048;24.650;2023-05-07T08:08:38;8.27;;;6.65;;
16460;SDS011;8341;42.048;24.650;2023-05-07T08:11:05;7.88;;;6.25;;
16460;SDS011;8341;42.048;24.650;2023-05-07T08:13:34;7.57;;;6.70;;
16460;SDS011;8341;42.048;24.650;2023-05-07T08:16:01;9.05;;;6.30;;
16460;SDS011;8341;42.048;24.650;2023-05-07T08:18:28;7.05;;;6.45;;
16460;SDS011;8341;42.048;24.650;2023-05-07T08:20:55;8.30;;;6.70;;
16460;SDS011;8341;42.048;24.650;2023-05-07T08:23:22;6.90;;;6.20;;
16460;SDS011;8341;42.048;24.650;2023-05-07T08:25:49;7.30;;;6.40;;
16460;SDS011;8341;42.048;24.650;2023-05-07T08:28:17;7.63;;;6.45;;
16460;SDS011;8341;42.048;24.650;2023-05-07T08:30:46;8.52;;;6.43;;
16460;SDS011;8341;42.048;24.650;2023-05-07T08:33:13;6.95;;;6.20;;
16460;SDS011;8341;42.048;24.650;2023-05-07T08:35:40;6.43;;;5.82;;
16460;SDS011;8341;42.048;24.650;2023-05-07T08:38:07;9.35;;;6.07;;
16460;SDS011;8341;42.048;24.650;2023-05-07T08:40:36;9.20;;;6.00;;
16460;SDS011;8341;42.048;24.650;2023-05-07T08:43:05;6.38;;;5.82;;
16460;SDS011;8341;42.048;24.650;2023-05-07T08:45:33;6.65;;;6.05;;
16460;SDS011;8341;42.048;24.650;2023-05-07T08:48:03;8.32;;;5.50;;
16460;SDS011;8341;42.048;24.650;2023-05-07T08:50:35;5.88;;;5.38;;
16460;SDS011;8341;42.048;24.650;2023-05-07T08:53:02;10.95;;;5.85;;
16460;SDS011;8341;42.048;24.650;2023-05-07T08:55:30;5.47;;;4.97;;
16460;SDS011;8341;42.048;24.650;2023-05-07T08:57:58;5.63;;;4.18;;
16460;SDS011;8341;42.048;24.650;2023-05-07T09:00:25;7.82;;;4.50;;
16460;SDS011;8341;42.048;24.650;2023-05-07T09:02:52;5.40;;;4.90;;
16460;SDS011;8341;42.048;24.650;2023-05-07T09:05:21;6.70;;;4.70;;
16460;SDS011;8341;42.048;24.650;2023-05-07T09:07:48;6.80;;;4.60;;
16460;SDS011;8341;42.048;24.650;2023-05-07T09:10:15;5.20;;;4.70;;
16460;SDS011;8341;42.048;24.650;2023-05-07T09:12:42;4.00;;;3.60;;
16460;SDS011;8341;42.048;24.650;2023-05-07T09:15:09;5.50;;;3.67;;
16460;SDS011;8341;42.048;24.650;2023-05-07T09:17:37;5.90;;;3.95;;
16460;SDS011;8341;42.048;24.650;2023-05-07T09:20:06;5.20;;;4.00;;
16460;SDS011;8341;42.048;24.650;2023-05-07T09:22:35;6.22;;;3.90;;
16460;SDS011;8341;42.048;24.650;2023-05-07T09:25:03;6.70;;;4.30;;
16460;SDS011;8341;42.048;24.650;2023-05-07T09:27:31;5.43;;;4.00;;
16460;SDS011;8341;42.048;24.650;2023-05-07T09:29:58;4.30;;;3.90;;
16460;SDS011;8341;42.048;24.650;2023-05-07T09:32:25;10.30;;;3.58;;
16460;SDS011;8341;42.048;24.650;2023-05-07T09:34:52;4.35;;;3.42;;
16460;SDS011;8341;42.048;24.650;2023-05-07T09:37:19;4.03;;;2.85;;
16460;SDS011;8341;42.048;24.650;2023-05-07T09:39:49;4.30;;;3.83;;
16460;SDS011;8341;42.048;24.650;2023-05-07T09:42:16;3.47;;;3.17;;
16460;SDS011;8341;42.048;24.650;2023-05-07T09:44:49;3.72;;;3.42;;
16460;SDS011;8341;42.048;24.650;2023-05-07T09:47:18;5.25;;;3.17;;
16460;SDS011;8341;42.048;24.650;2023-05-07T09:49:47;5.15;;;3.60;;
16460;SDS011;8341;42.048;24.650;2023-05-07T09:52:14;6.63;;;3.50;;
16460;SDS011;8341;42.048;24.650;2023-05-07T09:54:43;4.07;;;3.13;;
16460;SDS011;8341;42.048;24.650;2023-05-07T09:57:14;3.90;;;3.20;;
16460;SDS011;8341;42.048;24.650;2023-05-07T09:59:43;3.40;;;3.10;;
16460;SDS011;8341;42.048;24.650;2023-05-07T10:02:11;4.90;;;3.03;;
16460;SDS011;8341;42.048;24.650;2023-05-07T10:04:41;3.97;;;2.95;;
16460;SDS011;8341;42.048;24.650;2023-05-07T10:07:08;4.00;;;3.13;;
16460;SDS011;8341;42.048;24.650;2023-05-07T10:09:35;2.75;;;2.42;;
16460;SDS011;8341;42.048;24.650;2023-05-07T10:12:04;4.63;;;2.97;;
16460;SDS011;8341;42.048;24.650;2023-05-07T10:14:33;3.80;;;2.67;;
16460;SDS011;8341;42.048;24.650;2023-05-07T10:17:02;2.72;;;2.53;;
16460;SDS011;8341;42.048;24.650;2023-05-07T10:19:29;3.00;;;2.75;;
16460;SDS011;8341;42.048;24.650;2023-05-07T10:21:56;6.25;;;2.90;;
16460;SDS011;8341;42.048;24.650;2023-05-07T10:24:32;3.22;;;2.70;;
16460;SDS011;8341;42.048;24.650;2023-05-07T10:27:00;2.90;;;2.70;;
16460;SDS011;8341;42.048;24.650;2023-05-07T10:29:32;14.70;;;8.70;;
16460;SDS011;8341;42.048;24.650;2023-05-07T10:32:13;3.63;;;3.03;;
16460;SDS011;8341;42.048;24.650;2023-05-07T10:34:47;2.90;;;2.70;;
16460;SDS011;8341;42.048;24.650;2023-05-07T10:37:17;90.07;;;49.60;;
16460;SDS011;8341;42.048;24.650;2023-05-07T10:39:44;182.23;;;81.35;;
16460;SDS011;8341;42.048;24.650;2023-05-07T10:42:12;90.38;;;44.05;;
16460;SDS011;8341;42.048;24.650;2023-05-07T10:44:42;6.57;;;4.25;;
16460;SDS011;8341;42.048;24.650;2023-05-07T10:47:09;8.40;;;4.32;;
16460;SDS011;8341;42.048;24.650;2023-05-07T10:49:38;9.68;;;3.90;;
16460;SDS011;8341;42.048;24.650;2023-05-07T10:52:42;4.15;;;3.75;;
16460;SDS011;8341;42.048;24.650;2023-05-07T10:55:19;3.47;;;3.08;;
16460;SDS011;8341;42.048;24.650;2023-05-07T10:57:50;5.05;;;4.38;;
16460;SDS011;8341;42.048;24.650;2023-05-07T11:03:09;3.33;;;2.40;;
16460;SDS011;8341;42.048;24.650;2023-05-07T11:05:37;2.63;;;2.30;;
16460;SDS011;8341;42.048;24.650;2023-05-07T11:08:04;2.60;;;2.40;;
16460;SDS011;8341;42.048;24.650;2023-05-07T11:10:47;2.40;;;2.20;;
16460;SDS011;8341;42.048;24.650;2023-05-07T11:13:16;2.70;;;2.42;;
16460;SDS011;8341;42.048;24.650;2023-05-07T11:15:46;4.43;;;2.90;;
16460;SDS011;8341;42.048;24.650;2023-05-07T11:18:14;2.83;;;2.00;;
16460;SDS011;8341;42.048;24.650;2023-05-07T11:20:53;5.97;;;3.05;;
16460;SDS011;8341;42.048;24.650;2023-05-07T11:26:23;2.67;;;2.38;;
16460;SDS011;8341;42.048;24.650;2023-05-07T11:28:51;3.13;;;2.80;;
16460;SDS011;8341;42.048;24.650;2023-05-07T11:31:24;5.57;;;2.75;;
16460;SDS011;8341;42.048;24.650;2023-05-07T11:33:53;3.30;;;2.63;;
16460;SDS011;8341;42.048;24.650;2023-05-07T11:36:22;4.70;;;2.47;;
16460;SDS011;8341;42.048;24.650;2023-05-07T11:38:50;5.18;;;2.40;;
16460;SDS011;8341;42.048;24.650;2023-05-07T11:41:17;4.15;;;2.65;;
16460;SDS011;8341;42.048;24.650;2023-05-07T11:43:58;4.50;;;2.53;;
16460;SDS011;8341;42.048;24.650;2023-05-07T11:46:27;2.90;;;2.58;;
16460;SDS011;8341;42.048;24.650;2023-05-07T11:48:55;2.78;;;2.55;;
16460;SDS011;8341;42.048;24.650;2023-05-07T11:51:23;2.10;;;1.95;;
16460;SDS011;8341;42.048;24.650;2023-05-07T11:53:52;3.40;;;2.42;;
16460;SDS011;8341;42.048;24.650;2023-05-07T11:56:19;3.08;;;2.42;;
16460;SDS011;8341;42.048;24.650;2023-05-07T11:58:47;2.95;;;2.45;;
16460;SDS011;8341;42.048;24.650;2023-05-07T12:01:14;2.55;;;2.30;;
16460;SDS011;8341;42.048;24.650;2023-05-07T12:03:45;2.60;;;2.40;;
16460;SDS011;8341;42.048;24.650;2023-05-07T12:06:13;2.60;;;2.30;;
16460;SDS011;8341;42.048;24.650;2023-05-07T12:08:41;3.15;;;2.28;;
16460;SDS011;8341;42.048;24.650;2023-05-07T12:11:10;2.50;;;2.30;;
16460;SDS011;8341;42.048;24.650;2023-05-07T12:13:41;4.20;;;2.28;;
16460;SDS011;8341;42.048;24.650;2023-05-07T12:16:08;2.75;;;2.55;;
16460;SDS011;8341;42.048;24.650;2023-05-07T12:18:36;2.67;;;2.13;;
16460;SDS011;8341;42.048;24.650;2023-05-07T12:21:05;2.30;;;2.10;;
16460;SDS011;8341;42.048;24.650;2023-05-07T12:23:34;2.50;;;2.30;;
16460;SDS011;8341;42.048;24.650;2023-05-07T12:26:02;2.47;;;2.28;;
16460;SDS011;8341;42.048;24.650;2023-05-07T12:28:29;2.53;;;2.33;;
16460;SDS011;8341;42.048;24.650;2023-05-07T12:30:57;1.98;;;1.88;;
16460;SDS011;8341;42.048;24.650;2023-05-07T12:33:25;3.17;;;2.38;;
16460;SDS011;8341;42.048;24.650;2023-05-07T12:35:54;6.93;;;3.30;;
16460;SDS011;8341;42.048;24.650;2023-05-07T12:38:23;3.63;;;2.50;;
16460;SDS011;8341;42.048;24.650;2023-05-07T12:40:53;2.88;;;2.30;;
16460;SDS011;8341;42.048;24.650;2023-05-07T12:43:21;2.30;;;2.10;;
16460;SDS011;8341;42.048;24.650;2023-05-07T12:45:51;9.82;;;8.40;;
16460;SDS011;8341;42.048;24.650;2023-05-07T12:48:19;5.68;;;3.67;;
16460;SDS011;8341;42.048;24.650;2023-05-07T12:50:49;6.85;;;5.53;;
16460;SDS011;8341;42.048;24.650;2023-05-07T12:53:16;3.75;;;3.35;;
16460;SDS011;8341;42.048;24.650;2023-05-07T12:55:45;2.97;;;2.75;;
16460;SDS011;8341;42.048;24.650;2023-05-07T12:58:15;2.60;;;2.40;;
16460;SDS011;8341;42.048;24.650;2023-05-07T13:00:43;8.77;;;7.40;;
16460;SDS011;8341;42.048;24.650;2023-05-07T13:03:10;7.20;;;6.07;;
16460;SDS011;8341;42.048;24.650;2023-05-07T13:05:38;3.83;;;3.42;;
16460;SDS011;8341;42.048;24.650;2023-05-07T13:08:05;5.22;;;2.70;;
16460;SDS011;8341;42.048;24.650;2023-05-07T13:10:34;2.38;;;2.13;;
16460;SDS011;8341;42.048;24.650;2023-05-07T13:13:03;3.90;;;2.40;;
16460;SDS011;8341;42.048;24.650;2023-05-07T13:15:30;2.47;;;2.20;;
16460;SDS011;8341;42.048;24.650;2023-05-07T13:17:56;4.43;;;2.70;;
16460;SDS011;8341;42.048;24.650;2023-05-07T13:20:23;2.55;;;2.35;;
16460;SDS011;8341;42.048;24.650;2023-05-07T13:22:50;3.05;;;2.20;;
16460;SDS011;8341;42.048;24.650;2023-05-07T13:25:17;6.28;;;2.90;;
16460;SDS011;8341;42.048;24.650;2023-05-07T13:27:44;2.38;;;2.17;;
16460;SDS011;8341;42.048;24.650;2023-05-07T13:30:13;2.75;;;2.53;;
16460;SDS011;8341;42.048;24.650;2023-05-07T13:32:40;3.38;;;2.45;;
16460;SDS011;8341;42.048;24.650;2023-05-07T13:35:07;2.80;;;2.40;;
16460;SDS011;8341;42.048;24.650;2023-05-07T13:37:34;2.92;;;2.50;;
16460;SDS011;8341;42.048;24.650;2023-05-07T13:40:01;3.72;;;2.80;;
16460;SDS011;8341;42.048;24.650;2023-05-07T13:42:28;3.22;;;2.92;;
16460;SDS011;8341;42.048;24.650;2023-05-07T13:44:55;2.53;;;2.33;;
16460;SDS011;8341;42.048;24.650;2023-05-07T13:47:24;2.53;;;2.33;;
16460;SDS011;8341;42.048;24.650;2023-05-07T13:49:51;2.72;;;2.45;;
16460;SDS011;8341;42.048;24.650;2023-05-07T13:52:18;3.83;;;2.90;;
16460;SDS011;8341;42.048;24.650;2023-05-07T13:54:45;3.88;;;2.47;;
16460;SDS011;8341;42.048;24.650;2023-05-07T13:57:12;5.00;;;4.22;;
16460;SDS011;8341;42.048;24.650;2023-05-07T13:59:39;3.55;;;2.95;;
16460;SDS011;8341;42.048;24.650;2023-05-07T14:02:06;5.20;;;2.88;;
16460;SDS011;8341;42.048;24.650;2023-05-07T14:04:35;5.95;;;2.80;;
16460;SDS011;8341;42.048;24.650;2023-05-07T14:07:04;6.35;;;3.10;;
16460;SDS011;8341;42.048;24.650;2023-05-07T14:09:31;12.07;;;5.40;;
16460;SDS011;8341;42.048;24.650;2023-05-07T14:11:58;15.65;;;7.85;;
16460;SDS011;8341;42.048;24.650;2023-05-07T14:14:26;12.30;;;5.75;;
16460;SDS011;8341;42.048;24.650;2023-05-07T14:16:53;4.40;;;3.80;;
16460;SDS011;8341;42.048;24.650;2023-05-07T14:19:20;3.15;;;2.80;;
16460;SDS011;8341;42.048;24.650;2023-05-07T14:21:49;5.18;;;3.03;;
16460;SDS011;8341;42.048;24.650;2023-05-07T14:24:16;3.58;;;2.90;;
16460;SDS011;8341;42.048;24.650;2023-05-07T14:26:43;2.45;;;2.35;;
16460;SDS011;8341;42.048;24.650;2023-05-07T14:29:10;3.65;;;3.00;;
16460;SDS011;8341;42.048;24.650;2023-05-07T14:31:37;4.13;;;2.53;;
16460;SDS011;8341;42.048;24.650;2023-05-07T14:34:04;6.13;;;2.42;;
16460;SDS011;8341;42.048;24.650;2023-05-07T14:36:31;3.45;;;2.53;;
16460;SDS011;8341;42.048;24.650;2023-05-07T14:38:59;2.50;;;2.03;;
16460;SDS011;8341;42.048;24.650;2023-05-07T14:41:27;3.25;;;2.35;;
16460;SDS011;8341;42.048;24.650;2023-05-07T14:43:54;2.58;;;2.35;;
16460;SDS011;8341;42.048;24.650;2023-05-07T14:46:21;2.75;;;2.30;;
16460;SDS011;8341;42.048;24.650;2023-05-07T14:48:49;2.28;;;2.08;;
16460;SDS011;8341;42.048;24.650;2023-05-07T14:51:15;3.38;;;2.47;;
16460;SDS011;8341;42.048;24.650;2023-05-07T14:53:42;2.65;;;2.45;;
16460;SDS011;8341;42.048;24.650;2023-05-07T14:56:11;2.13;;;2.03;;
16460;SDS011;8341;42.048;24.650;2023-05-07T14:58:38;4.38;;;2.65;;